sensor_id;sensor_type;location;lat;lon;timestamp;P1;durP1;ratioP1;P2;durP2;ratioP2
27704;SDS011;15109;50.992;6.918;2022-11-21T00:00:03;4.15;;;1.05;;
27704;SDS011;15109;50.992;6.918;2022-11-21T00:03:27;4.47;;;1.55;;
27704;SDS011;15109;50.992;6.918;2022-11-21T00:06:49;15.10;;;1.98;;
27704;SDS011;15109;50.992;6.918;2022-11-21T00:10:11;7.03;;;1.40;;
27704;SDS011;15109;50.992;6.918;2022-11-21T00:13:32;5.22;;;1.05;;
27704;SDS011;15109;50.992;6.918;2022-11-21T00:16:54;3.50;;;1.52;;
27704;SDS011;15109;50.992;6.918;2022-11-21T00:20:15;4.15;;;1.25;;
27704;SDS011;15109;50.992;6.918;2022-11-21T00:23:37;19.35;;;1.83;;
27704;SDS011;15109;50.992;6.918;2022-11-21T00:26:58;10.07;;;2.08;;
27704;SDS011;15109;50.992;6.918;2022-11-21T00:30:19;4.88;;;1.25;;
27704;SDS011;15109;50.992;6.918;2022-11-21T00:33:40;7.05;;;1.92;;
27704;SDS011;15109;50.992;6.918;2022-11-21T00:37:01;3.28;;;1.30;;
27704;SDS011;15109;50.992;6.918;2022-11-21T00:40:22;13.02;;;1.80;;
27704;SDS011;15109;50.992;6.918;2022-11-21T00:43:44;5.05;;;1.95;;
27704;SDS011;15109;50.992;6.918;2022-11-21T00:47:05;1.83;;;0.77;;
27704;SDS011;15109;50.992;6.918;2022-11-21T00:50:26;8.90;;;1.20;;
27704;SDS011;15109;50.992;6.918;2022-11-21T00:53:47;6.60;;;2.92;;
27704;SDS011;15109;50.992;6.918;2022-11-21T00:57:08;6.50;;;1.50;;
27704;SDS011;15109;50.992;6.918;2022-11-21T01:00:29;3.72;;;1.38;;
27704;SDS011;15109;50.992;6.918;2022-11-21T01:03:50;3.65;;;1.63;;
27704;SDS011;15109;50.992;6.918;2022-11-21T01:07:14;2.22;;;0.90;;
27704;SDS011;15109;50.992;6.918;2022-11-21T01:10:35;8.35;;;1.50;;
27704;SDS011;15109;50.992;6.918;2022-11-21T01:13:56;5.50;;;1.80;;
27704;SDS011;15109;50.992;6.918;2022-11-21T01:17:17;4.90;;;1.58;;
27704;SDS011;15109;50.992;6.918;2022-11-21T01:20:38;4.88;;;1.30;;
27704;SDS011;15109;50.992;6.918;2022-11-21T01:24:00;4.07;;;0.95;;
27704;SDS011;15109;50.992;6.918;2022-11-21T01:27:22;2.45;;;1.23;;
27704;SDS011;15109;50.992;6.918;2022-11-21T01:30:43;10.85;;;1.33;;
27704;SDS011;15109;50.992;6.918;2022-11-21T01:34:04;4.57;;;1.25;;
27704;SDS011;15109;50.992;6.918;2022-11-21T01:37:25;6.32;;;1.42;;
27704;SDS011;15109;50.992;6.918;2022-11-21T01:40:46;5.72;;;1.65;;
27704;SDS011;15109;50.992;6.918;2022-11-21T01:44:18;4.13;;;1.77;;
27704;SDS011;15109;50.992;6.918;2022-11-21T01:47:43;3.53;;;1.38;;
27704;SDS011;15109;50.992;6.918;2022-11-21T01:54:58;5.78;;;1.20;;
27704;SDS011;15109;50.992;6.918;2022-11-21T01:58:25;2.58;;;1.25;;
27704;SDS011;15109;50.992;6.918;2022-11-21T02:01:49;6.88;;;1.95;;
27704;SDS011;15109;50.992;6.918;2022-11-21T02:05:15;3.13;;;1.35;;
27704;SDS011;15109;50.992;6.918;2022-11-21T02:08:39;5.45;;;1.27;;
27704;SDS011;15109;50.992;6.918;2022-11-21T02:12:07;2.72;;;1.23;;
27704;SDS011;15109;50.992;6.918;2022-11-21T02:15:33;2.38;;;0.95;;
27704;SDS011;15109;50.992;6.918;2022-11-21T02:18:54;8.98;;;1.83;;
27704;SDS011;15109;50.992;6.918;2022-11-21T02:22:19;3.92;;;1.38;;
27704;SDS011;15109;50.992;6.918;2022-11-21T02:25:58;2.42;;;0.98;;
27704;SDS011;15109;50.992;6.918;2022-11-21T02:29:19;1.10;;;0.60;;
27704;SDS011;15109;50.992;6.918;2022-11-21T02:32:42;2.40;;;1.08;;
27704;SDS011;15109;50.992;6.918;2022-11-21T02:36:30;8.77;;;1.65;;
27704;SDS011;15109;50.992;6.918;2022-11-21T02:39:57;1.10;;;0.65;;
27704;SDS011;15109;50.992;6.918;2022-11-21T02:43:24;3.10;;;0.95;;
27704;SDS011;15109;50.992;6.918;2022-11-21T02:46:51;2.53;;;0.98;;
27704;SDS011;15109;50.992;6.918;2022-11-21T02:50:13;16.10;;;1.23;;
27704;SDS011;15109;50.992;6.918;2022-11-21T02:53:39;2.25;;;0.70;;
27704;SDS011;15109;50.992;6.918;2022-11-21T02:57:00;9.32;;;1.33;;
27704;SDS011;15109;50.992;6.918;2022-11-21T03:00:21;1.38;;;0.82;;
27704;SDS011;15109;50.992;6.918;2022-11-21T03:03:42;2.00;;;0.88;;
27704;SDS011;15109;50.992;6.918;2022-11-21T03:07:04;4.75;;;1.00;;
27704;SDS011;15109;50.992;6.918;2022-11-21T03:10:25;1.33;;;0.75;;
27704;SDS011;15109;50.992;6.918;2022-11-21T03:13:46;2.05;;;0.82;;
27704;SDS011;15109;50.992;6.918;2022-11-21T03:17:07;9.60;;;0.93;;
27704;SDS011;15109;50.992;6.918;2022-11-21T03:20:29;3.20;;;1.08;;
27704;SDS011;15109;50.992;6.918;2022-11-21T03:23:51;12.93;;;1.60;;
27704;SDS011;15109;50.992;6.918;2022-11-21T03:27:12;2.72;;;0.93;;
27704;SDS011;15109;50.992;6.918;2022-11-21T03:30:35;2.05;;;1.00;;
27704;SDS011;15109;50.992;6.918;2022-11-21T03:33:56;3.97;;;1.08;;
27704;SDS011;15109;50.992;6.918;2022-11-21T03:37:17;2.30;;;0.75;;
27704;SDS011;15109;50.992;6.918;2022-11-21T03:40:38;2.50;;;1.10;;
27704;SDS011;15109;50.992;6.918;2022-11-21T03:44:07;2.10;;;0.75;;
27704;SDS011;15109;50.992;6.918;2022-11-21T03:47:29;1.67;;;0.90;;
27704;SDS011;15109;50.992;6.918;2022-11-21T03:50:50;2.03;;;0.73;;
27704;SDS011;15109;50.992;6.918;2022-11-21T03:54:11;1.65;;;0.45;;
27704;SDS011;15109;50.992;6.918;2022-11-21T03:57:32;1.35;;;0.52;;
27704;SDS011;15109;50.992;6.918;2022-11-21T04:00:53;1.08;;;0.50;;
27704;SDS011;15109;50.992;6.918;2022-11-21T04:04:14;1.92;;;0.80;;
27704;SDS011;15109;50.992;6.918;2022-11-21T04:07:35;1.67;;;0.68;;
27704;SDS011;15109;50.992;6.918;2022-11-21T04:10:57;1.52;;;0.73;;
27704;SDS011;15109;50.992;6.918;2022-11-21T04:14:18;13.73;;;1.50;;
27704;SDS011;15109;50.992;6.918;2022-11-21T04:17:39;1.95;;;0.73;;
27704;SDS011;15109;50.992;6.918;2022-11-21T04:21:01;0.82;;;0.63;;
27704;SDS011;15109;50.992;6.918;2022-11-21T04:24:23;1.88;;;1.00;;
27704;SDS011;15109;50.992;6.918;2022-11-21T04:27:44;3.30;;;1.10;;
27704;SDS011;15109;50.992;6.918;2022-11-21T04:31:06;1.75;;;1.00;;
27704;SDS011;15109;50.992;6.918;2022-11-21T04:34:28;1.25;;;0.70;;
27704;SDS011;15109;50.992;6.918;2022-11-21T04:37:49;2.28;;;1.08;;
27704;SDS011;15109;50.992;6.918;2022-11-21T04:41:11;2.63;;;1.13;;
27704;SDS011;15109;50.992;6.918;2022-11-21T04:44:32;1.80;;;0.73;;
27704;SDS011;15109;50.992;6.918;2022-11-21T04:47:53;14.95;;;1.75;;
27704;SDS011;15109;50.992;6.918;2022-11-21T04:51:14;0.45;;;0.32;;
27704;SDS011;15109;50.992;6.918;2022-11-21T04:54:35;2.58;;;1.02;;
27704;SDS011;15109;50.992;6.918;2022-11-21T04:57:56;1.98;;;0.85;;
27704;SDS011;15109;50.992;6.918;2022-11-21T05:01:18;2.03;;;0.85;;
27704;SDS011;15109;50.992;6.918;2022-11-21T05:04:39;4.07;;;1.20;;
27704;SDS011;15109;50.992;6.918;2022-11-21T05:08:00;2.63;;;1.10;;
27704;SDS011;15109;50.992;6.918;2022-11-21T05:11:21;1.23;;;0.80;;
27704;SDS011;15109;50.992;6.918;2022-11-21T05:15:00;1.90;;;0.95;;
27704;SDS011;15109;50.992;6.918;2022-11-21T05:18:21;4.20;;;1.48;;
27704;SDS011;15109;50.992;6.918;2022-11-21T05:21:42;7.82;;;1.42;;
27704;SDS011;15109;50.992;6.918;2022-11-21T05:25:04;4.65;;;1.92;;
27704;SDS011;15109;50.992;6.918;2022-11-21T05:28:26;1.67;;;1.08;;
27704;SDS011;15109;50.992;6.918;2022-11-21T05:31:47;5.45;;;1.70;;
27704;SDS011;15109;50.992;6.918;2022-11-21T05:35:08;4.57;;;1.33;;
27704;SDS011;15109;50.992;6.918;2022-11-21T05:38:29;11.95;;;1.73;;
27704;SDS011;15109;50.992;6.918;2022-11-21T05:41:50;3.30;;;1.60;;
27704;SDS011;15109;50.992;6.918;2022-11-21T05:45:12;6.93;;;1.58;;
27704;SDS011;15109;50.992;6.918;2022-11-21T05:48:33;3.10;;;1.60;;
27704;SDS011;15109;50.992;6.918;2022-11-21T05:51:56;7.22;;;1.98;;
27704;SDS011;15109;50.992;6.918;2022-11-21T05:55:17;5.00;;;1.77;;
27704;SDS011;15109;50.992;6.918;2022-11-21T05:58:38;2.90;;;1.40;;
27704;SDS011;15109;50.992;6.918;2022-11-21T06:02:00;5.65;;;1.73;;
27704;SDS011;15109;50.992;6.918;2022-11-21T06:05:39;3.88;;;2.15;;
27704;SDS011;15109;50.992;6.918;2022-11-21T06:09:01;3.22;;;1.73;;
27704;SDS011;15109;50.992;6.918;2022-11-21T06:12:22;3.55;;;1.63;;
27704;SDS011;15109;50.992;6.918;2022-11-21T06:15:43;3.95;;;1.83;;
27704;SDS011;15109;50.992;6.918;2022-11-21T06:19:04;4.05;;;1.80;;
27704;SDS011;15109;50.992;6.918;2022-11-21T06:22:25;2.38;;;1.65;;
27704;SDS011;15109;50.992;6.918;2022-11-21T06:25:47;1.58;;;1.10;;
27704;SDS011;15109;50.992;6.918;2022-11-21T06:29:09;5.18;;;1.80;;
27704;SDS011;15109;50.992;6.918;2022-11-21T06:32:35;2.67;;;1.33;;
27704;SDS011;15109;50.992;6.918;2022-11-21T06:35:57;4.70;;;1.95;;
27704;SDS011;15109;50.992;6.918;2022-11-21T06:39:21;3.33;;;1.75;;
27704;SDS011;15109;50.992;6.918;2022-11-21T06:42:42;3.22;;;1.98;;
27704;SDS011;15109;50.992;6.918;2022-11-21T06:46:03;3.92;;;2.10;;
27704;SDS011;15109;50.992;6.918;2022-11-21T06:49:24;5.55;;;2.40;;
27704;SDS011;15109;50.992;6.918;2022-11-21T06:52:45;7.45;;;2.13;;
27704;SDS011;15109;50.992;6.918;2022-11-21T06:56:06;2.40;;;1.48;;
27704;SDS011;15109;50.992;6.918;2022-11-21T06:59:27;3.30;;;1.70;;
27704;SDS011;15109;50.992;6.918;2022-11-21T07:02:48;5.05;;;2.33;;
27704;SDS011;15109;50.992;6.918;2022-11-21T07:06:09;3.42;;;1.58;;
27704;SDS011;15109;50.992;6.918;2022-11-21T07:09:31;4.85;;;2.33;;
27704;SDS011;15109;50.992;6.918;2022-11-21T07:12:57;3.10;;;1.50;;
27704;SDS011;15109;50.992;6.918;2022-11-21T07:16:37;3.80;;;1.58;;
27704;SDS011;15109;50.992;6.918;2022-11-21T07:19:58;5.75;;;1.98;;
27704;SDS011;15109;50.992;6.918;2022-11-21T07:23:19;7.85;;;2.03;;
27704;SDS011;15109;50.992;6.918;2022-11-21T07:26:40;3.75;;;2.47;;
27704;SDS011;15109;50.992;6.918;2022-11-21T07:30:01;7.05;;;2.78;;
27704;SDS011;15109;50.992;6.918;2022-11-21T07:33:22;3.85;;;1.92;;
27704;SDS011;15109;50.992;6.918;2022-11-21T07:36:43;5.18;;;2.58;;
27704;SDS011;15109;50.992;6.918;2022-11-21T07:40:05;4.13;;;1.65;;
27704;SDS011;15109;50.992;6.918;2022-11-21T07:43:26;3.63;;;2.08;;
27704;SDS011;15109;50.992;6.918;2022-11-21T07:46:47;5.50;;;1.70;;
27704;SDS011;15109;50.992;6.918;2022-11-21T07:50:09;3.58;;;1.83;;
27704;SDS011;15109;50.992;6.918;2022-11-21T07:53:31;2.38;;;1.42;;
27704;SDS011;15109;50.992;6.918;2022-11-21T07:56:52;3.30;;;1.80;;
27704;SDS011;15109;50.992;6.918;2022-11-21T08:00:13;6.70;;;2.25;;
27704;SDS011;15109;50.992;6.918;2022-11-21T08:03:35;6.82;;;1.92;;
27704;SDS011;15109;50.992;6.918;2022-11-21T08:06:56;3.10;;;1.55;;
27704;SDS011;15109;50.992;6.918;2022-11-21T08:10:17;3.03;;;1.40;;
27704;SDS011;15109;50.992;6.918;2022-11-21T08:13:39;4.15;;;2.03;;
27704;SDS011;15109;50.992;6.918;2022-11-21T08:17:00;3.42;;;1.42;;
27704;SDS011;15109;50.992;6.918;2022-11-21T08:20:21;4.82;;;2.15;;
27704;SDS011;15109;50.992;6.918;2022-11-21T08:23:42;6.32;;;2.40;;
27704;SDS011;15109;50.992;6.918;2022-11-21T08:27:03;11.38;;;1.95;;
27704;SDS011;15109;50.992;6.918;2022-11-21T08:30:25;3.00;;;1.50;;
27704;SDS011;15109;50.992;6.918;2022-11-21T08:33:46;2.67;;;1.38;;
27704;SDS011;15109;50.992;6.918;2022-11-21T08:37:07;3.63;;;1.75;;
27704;SDS011;15109;50.992;6.918;2022-11-21T08:40:29;6.72;;;2.85;;
27704;SDS011;15109;50.992;6.918;2022-11-21T08:43:51;9.20;;;3.95;;
27704;SDS011;15109;50.992;6.918;2022-11-21T08:47:12;6.32;;;4.03;;
27704;SDS011;15109;50.992;6.918;2022-11-21T08:50:33;11.88;;;7.32;;
27704;SDS011;15109;50.992;6.918;2022-11-21T08:53:54;8.15;;;4.35;;
27704;SDS011;15109;50.992;6.918;2022-11-21T08:57:15;4.90;;;2.78;;
27704;SDS011;15109;50.992;6.918;2022-11-21T09:00:36;10.00;;;3.38;;
27704;SDS011;15109;50.992;6.918;2022-11-21T09:03:57;5.47;;;2.38;;
27704;SDS011;15109;50.992;6.918;2022-11-21T09:07:18;7.28;;;2.38;;
27704;SDS011;15109;50.992;6.918;2022-11-21T09:10:39;6.05;;;2.78;;
27704;SDS011;15109;50.992;6.918;2022-11-21T09:14:00;4.25;;;2.35;;
27704;SDS011;15109;50.992;6.918;2022-11-21T09:17:40;3.80;;;2.08;;
27704;SDS011;15109;50.992;6.918;2022-11-21T09:21:20;5.38;;;2.65;;
27704;SDS011;15109;50.992;6.918;2022-11-21T09:24:41;4.53;;;2.42;;
27704;SDS011;15109;50.992;6.918;2022-11-21T09:28:03;7.07;;;2.70;;
27704;SDS011;15109;50.992;6.918;2022-11-21T09:31:25;3.17;;;1.98;;
27704;SDS011;15109;50.992;6.918;2022-11-21T09:34:47;3.35;;;2.15;;
27704;SDS011;15109;50.992;6.918;2022-11-21T09:38:08;5.30;;;2.72;;
27704;SDS011;15109;50.992;6.918;2022-11-21T09:48:38;9.75;;;1.98;;
27704;SDS011;15109;50.992;6.918;2022-11-21T09:52:31;2.78;;;1.67;;
27704;SDS011;15109;50.992;6.918;2022-11-21T09:56:10;3.80;;;2.17;;
27704;SDS011;15109;50.992;6.918;2022-11-21T09:59:35;5.68;;;1.83;;
27704;SDS011;15109;50.992;6.918;2022-11-21T10:02:58;3.28;;;1.80;;
27704;SDS011;15109;50.992;6.918;2022-11-21T10:09:46;3.17;;;1.83;;
27704;SDS011;15109;50.992;6.918;2022-11-21T10:13:18;3.05;;;1.60;;
27704;SDS011;15109;50.992;6.918;2022-11-21T10:20:54;3.95;;;1.52;;
27704;SDS011;15109;50.992;6.918;2022-11-21T10:27:50;1.33;;;0.90;;
27704;SDS011;15109;50.992;6.918;2022-11-21T10:31:15;2.77;;;0.70;;
27704;SDS011;15109;50.992;6.918;2022-11-21T10:34:37;5.05;;;0.90;;
27704;SDS011;15109;50.992;6.918;2022-11-21T10:37:59;3.63;;;1.08;;
27704;SDS011;15109;50.992;6.918;2022-11-21T10:45:09;4.38;;;1.05;;
27704;SDS011;15109;50.992;6.918;2022-11-21T10:48:35;2.17;;;0.95;;
27704;SDS011;15109;50.992;6.918;2022-11-21T10:55:42;6.05;;;0.93;;
27704;SDS011;15109;50.992;6.918;2022-11-21T10:59:27;1.33;;;0.70;;
27704;SDS011;15109;50.992;6.918;2022-11-21T11:06:26;4.35;;;1.27;;
27704;SDS011;15109;50.992;6.918;2022-11-21T11:09:49;16.75;;;1.17;;
27704;SDS011;15109;50.992;6.918;2022-11-21T11:13:12;0.75;;;0.63;;
27704;SDS011;15109;50.992;6.918;2022-11-21T11:16:53;1.95;;;0.80;;
27704;SDS011;15109;50.992;6.918;2022-11-21T11:20:28;0.82;;;0.50;;
27704;SDS011;15109;50.992;6.918;2022-11-21T11:27:30;1.35;;;0.40;;
27704;SDS011;15109;50.992;6.918;2022-11-21T11:30:54;1.17;;;0.70;;
27704;SDS011;15109;50.992;6.918;2022-11-21T11:34:16;2.47;;;0.85;;
27704;SDS011;15109;50.992;6.918;2022-11-21T11:37:38;0.73;;;0.40;;
27704;SDS011;15109;50.992;6.918;2022-11-21T11:41:12;0.73;;;0.50;;
27704;SDS011;15109;50.992;6.918;2022-11-21T11:48:45;1.60;;;0.55;;
27704;SDS011;15109;50.992;6.918;2022-11-21T11:52:09;0.30;;;0.30;;
27704;SDS011;15109;50.992;6.918;2022-11-21T11:59:00;1.38;;;0.65;;
27704;SDS011;15109;50.992;6.918;2022-11-21T12:03:33;0.38;;;0.32;;
27704;SDS011;15109;50.992;6.918;2022-11-21T12:10:36;4.82;;;0.47;;
27704;SDS011;15109;50.992;6.918;2022-11-21T12:18:30;1.15;;;0.60;;
27704;SDS011;15109;50.992;6.918;2022-11-21T12:21:55;1.05;;;0.63;;
27704;SDS011;15109;50.992;6.918;2022-11-21T12:25:17;0.73;;;0.45;;
27704;SDS011;15109;50.992;6.918;2022-11-21T12:28:53;1.17;;;0.53;;
27704;SDS011;15109;50.992;6.918;2022-11-21T12:36:27;1.30;;;0.63;;
27704;SDS011;15109;50.992;6.918;2022-11-21T12:39:59;0.80;;;0.38;;
27704;SDS011;15109;50.992;6.918;2022-11-21T12:43:53;0.45;;;0.20;;
27704;SDS011;15109;50.992;6.918;2022-11-21T12:47:26;0.28;;;0.28;;
27704;SDS011;15109;50.992;6.918;2022-11-21T12:55:36;1.05;;;0.60;;
27704;SDS011;15109;50.992;6.918;2022-11-21T12:58:59;1.03;;;0.53;;
27704;SDS011;15109;50.992;6.918;2022-11-21T13:06:03;1.02;;;0.60;;
27704;SDS011;15109;50.992;6.918;2022-11-21T13:09:32;0.40;;;0.40;;
27704;SDS011;15109;50.992;6.918;2022-11-21T13:16:21;0.30;;;0.25;;
27704;SDS011;15109;50.992;6.918;2022-11-21T13:20:00;1.95;;;0.73;;
27704;SDS011;15109;50.992;6.918;2022-11-21T13:23:40;1.83;;;0.57;;
27704;SDS011;15109;50.992;6.918;2022-11-21T13:27:02;0.65;;;0.43;;
27704;SDS011;15109;50.992;6.918;2022-11-21T13:30:23;0.70;;;0.43;;
27704;SDS011;15109;50.992;6.918;2022-11-21T13:33:45;0.20;;;0.20;;
27704;SDS011;15109;50.992;6.918;2022-11-21T13:37:07;1.52;;;0.63;;
27704;SDS011;15109;50.992;6.918;2022-11-21T13:43:49;0.28;;;0.20;;
27704;SDS011;15109;50.992;6.918;2022-11-21T13:58:10;1.08;;;0.40;;
27704;SDS011;15109;50.992;6.918;2022-11-21T14:09:19;1.67;;;0.57;;
27704;SDS011;15109;50.992;6.918;2022-11-21T14:12:46;0.63;;;0.40;;
27704;SDS011;15109;50.992;6.918;2022-11-21T14:19:49;0.75;;;0.47;;
27704;SDS011;15109;50.992;6.918;2022-11-21T14:23:15;0.20;;;0.20;;
27704;SDS011;15109;50.992;6.918;2022-11-21T14:26:39;2.17;;;0.43;;
27704;SDS011;15109;50.992;6.918;2022-11-21T14:30:03;1.67;;;0.50;;
27704;SDS011;15109;50.992;6.918;2022-11-21T14:33:28;1.65;;;0.68;;
27704;SDS011;15109;50.992;6.918;2022-11-21T14:36:50;0.93;;;0.68;;
27704;SDS011;15109;50.992;6.918;2022-11-21T14:40:21;1.33;;;0.40;;
27704;SDS011;15109;50.992;6.918;2022-11-21T14:43:43;4.97;;;1.25;;
27704;SDS011;15109;50.992;6.918;2022-11-21T14:47:17;3.15;;;1.42;;
27704;SDS011;15109;50.992;6.918;2022-11-21T14:50:39;1.48;;;0.60;;
27704;SDS011;15109;50.992;6.918;2022-11-21T14:54:01;0.30;;;0.30;;
27704;SDS011;15109;50.992;6.918;2022-11-21T14:57:27;0.90;;;0.47;;
27704;SDS011;15109;50.992;6.918;2022-11-21T15:01:06;10.60;;;0.57;;
27704;SDS011;15109;50.992;6.918;2022-11-21T15:04:39;1.52;;;0.63;;
27704;SDS011;15109;50.992;6.918;2022-11-21T15:08:01;1.00;;;0.55;;
27704;SDS011;15109;50.992;6.918;2022-11-21T15:11:26;0.60;;;0.43;;
27704;SDS011;15109;50.992;6.918;2022-11-21T15:15:25;2.13;;;0.80;;
27704;SDS011;15109;50.992;6.918;2022-11-21T15:18:52;3.70;;;0.47;;
27704;SDS011;15109;50.992;6.918;2022-11-21T15:22:36;1.00;;;0.40;;
27704;SDS011;15109;50.992;6.918;2022-11-21T15:25:57;1.23;;;0.65;;
27704;SDS011;15109;50.992;6.918;2022-11-21T15:29:19;1.58;;;0.90;;
27704;SDS011;15109;50.992;6.918;2022-11-21T15:36:39;1.17;;;0.75;;
27704;SDS011;15109;50.992;6.918;2022-11-21T15:40:00;2.05;;;0.68;;
27704;SDS011;15109;50.992;6.918;2022-11-21T15:43:37;1.92;;;0.73;;
27704;SDS011;15109;50.992;6.918;2022-11-21T15:47:02;0.35;;;0.35;;
27704;SDS011;15109;50.992;6.918;2022-11-21T15:50:23;0.70;;;0.40;;
27704;SDS011;15109;50.992;6.918;2022-11-21T15:53:44;1.77;;;0.88;;
27704;SDS011;15109;50.992;6.918;2022-11-21T15:57:07;1.65;;;0.57;;
27704;SDS011;15109;50.992;6.918;2022-11-21T16:00:30;0.73;;;0.45;;
27704;SDS011;15109;50.992;6.918;2022-11-21T16:03:52;0.80;;;0.30;;
27704;SDS011;15109;50.992;6.918;2022-11-21T16:07:16;1.52;;;0.57;;
27704;SDS011;15109;50.992;6.918;2022-11-21T16:10:37;0.82;;;0.65;;
27704;SDS011;15109;50.992;6.918;2022-11-21T16:13:59;2.83;;;0.85;;
27704;SDS011;15109;50.992;6.918;2022-11-21T16:17:21;1.55;;;0.40;;
27704;SDS011;15109;50.992;6.918;2022-11-21T16:20:42;0.30;;;0.30;;
27704;SDS011;15109;50.992;6.918;2022-11-21T16:24:03;0.88;;;0.50;;
27704;SDS011;15109;50.992;6.918;2022-11-21T16:27:25;0.65;;;0.50;;
27704;SDS011;15109;50.992;6.918;2022-11-21T16:30:46;1.60;;;0.52;;
27704;SDS011;15109;50.992;6.918;2022-11-21T16:34:07;0.60;;;0.25;;
27704;SDS011;15109;50.992;6.918;2022-11-21T16:37:30;1.15;;;0.63;;
27704;SDS011;15109;50.992;6.918;2022-11-21T16:40:52;1.98;;;0.85;;
27704;SDS011;15109;50.992;6.918;2022-11-21T16:44:17;5.43;;;1.13;;
27704;SDS011;15109;50.992;6.918;2022-11-21T16:47:38;0.65;;;0.50;;
27704;SDS011;15109;50.992;6.918;2022-11-21T16:54:30;2.83;;;0.75;;
27704;SDS011;15109;50.992;6.918;2022-11-21T16:57:52;0.90;;;0.57;;
27704;SDS011;15109;50.992;6.918;2022-11-21T17:01:21;5.82;;;0.77;;
27704;SDS011;15109;50.992;6.918;2022-11-21T17:04:44;0.85;;;0.60;;
27704;SDS011;15109;50.992;6.918;2022-11-21T17:08:05;2.60;;;1.02;;
27704;SDS011;15109;50.992;6.918;2022-11-21T17:11:27;2.90;;;1.05;;
27704;SDS011;15109;50.992;6.918;2022-11-21T17:14:50;1.08;;;0.52;;
27704;SDS011;15109;50.992;6.918;2022-11-21T17:18:11;2.72;;;1.08;;
27704;SDS011;15109;50.992;6.918;2022-11-21T17:21:32;3.33;;;0.70;;
27704;SDS011;15109;50.992;6.918;2022-11-21T17:24:54;0.93;;;0.55;;
27704;SDS011;15109;50.992;6.918;2022-11-21T17:28:15;1.75;;;0.65;;
27704;SDS011;15109;50.992;6.918;2022-11-21T17:31:36;4.38;;;0.90;;
27704;SDS011;15109;50.992;6.918;2022-11-21T17:34:57;1.98;;;0.82;;
27704;SDS011;15109;50.992;6.918;2022-11-21T17:38:18;3.20;;;0.98;;
27704;SDS011;15109;50.992;6.918;2022-11-21T17:41:39;1.52;;;0.52;;
27704;SDS011;15109;50.992;6.918;2022-11-21T17:45:00;1.63;;;0.75;;
27704;SDS011;15109;50.992;6.918;2022-11-21T17:48:21;1.50;;;0.70;;
27704;SDS011;15109;50.992;6.918;2022-11-21T17:51:42;1.20;;;0.65;;
27704;SDS011;15109;50.992;6.918;2022-11-21T17:55:04;0.43;;;0.43;;
27704;SDS011;15109;50.992;6.918;2022-11-21T17:58:29;1.25;;;0.63;;
27704;SDS011;15109;50.992;6.918;2022-11-21T18:01:50;0.95;;;0.50;;
27704;SDS011;15109;50.992;6.918;2022-11-21T18:05:16;1.27;;;0.43;;
27704;SDS011;15109;50.992;6.918;2022-11-21T18:08:40;1.23;;;0.68;;
27704;SDS011;15109;50.992;6.918;2022-11-21T18:12:11;2.88;;;0.73;;
27704;SDS011;15109;50.992;6.918;2022-11-21T18:15:34;2.05;;;0.63;;
27704;SDS011;15109;50.992;6.918;2022-11-21T18:19:09;1.85;;;1.08;;
27704;SDS011;15109;50.992;6.918;2022-11-21T18:22:36;6.28;;;1.10;;
27704;SDS011;15109;50.992;6.918;2022-11-21T18:26:03;0.52;;;0.43;;
27704;SDS011;15109;50.992;6.918;2022-11-21T18:29:28;4.57;;;0.93;;
27704;SDS011;15109;50.992;6.918;2022-11-21T18:32:49;1.05;;;0.80;;
27704;SDS011;15109;50.992;6.918;2022-11-21T18:36:10;1.00;;;0.63;;
27704;SDS011;15109;50.992;6.918;2022-11-21T18:39:32;2.75;;;1.00;;
27704;SDS011;15109;50.992;6.918;2022-11-21T18:42:55;0.93;;;0.50;;
27704;SDS011;15109;50.992;6.918;2022-11-21T18:46:20;1.00;;;0.47;;
27704;SDS011;15109;50.992;6.918;2022-11-21T18:49:42;2.20;;;0.73;;
27704;SDS011;15109;50.992;6.918;2022-11-21T18:53:03;1.25;;;0.82;;
27704;SDS011;15109;50.992;6.918;2022-11-21T18:56:25;0.98;;;0.65;;
27704;SDS011;15109;50.992;6.918;2022-11-21T19:00:06;3.33;;;1.00;;
27704;SDS011;15109;50.992;6.918;2022-11-21T19:03:31;1.08;;;0.70;;
27704;SDS011;15109;50.992;6.918;2022-11-21T19:06:52;3.30;;;1.38;;
27704;SDS011;15109;50.992;6.918;2022-11-21T19:10:14;0.68;;;0.68;;
27704;SDS011;15109;50.992;6.918;2022-11-21T19:13:35;1.90;;;1.10;;
27704;SDS011;15109;50.992;6.918;2022-11-21T19:16:56;2.00;;;0.88;;
27704;SDS011;15109;50.992;6.918;2022-11-21T19:20:20;0.90;;;0.65;;
27704;SDS011;15109;50.992;6.918;2022-11-21T19:23:44;1.33;;;0.65;;
27704;SDS011;15109;50.992;6.918;2022-11-21T19:27:18;2.95;;;1.30;;
27704;SDS011;15109;50.992;6.918;2022-11-21T19:30:46;1.85;;;0.73;;
27704;SDS011;15109;50.992;6.918;2022-11-21T19:37:37;1.00;;;0.68;;
27704;SDS011;15109;50.992;6.918;2022-11-21T19:41:02;4.00;;;0.73;;
27704;SDS011;15109;50.992;6.918;2022-11-21T19:44:36;0.95;;;0.68;;
27704;SDS011;15109;50.992;6.918;2022-11-21T19:47:57;3.38;;;1.08;;
27704;SDS011;15109;50.992;6.918;2022-11-21T19:51:21;3.45;;;0.90;;
27704;SDS011;15109;50.992;6.918;2022-11-21T19:55:08;4.07;;;1.42;;
27704;SDS011;15109;50.992;6.918;2022-11-21T19:58:33;3.95;;;1.05;;
27704;SDS011;15109;50.992;6.918;2022-11-21T20:01:54;3.05;;;0.52;;
27704;SDS011;15109;50.992;6.918;2022-11-21T20:05:15;10.48;;;1.30;;
27704;SDS011;15109;50.992;6.918;2022-11-21T20:08:39;3.17;;;1.05;;
27704;SDS011;15109;50.992;6.918;2022-11-21T20:12:06;2.10;;;0.98;;
27704;SDS011;15109;50.992;6.918;2022-11-21T20:15:28;3.88;;;1.05;;
27704;SDS011;15109;50.992;6.918;2022-11-21T20:18:49;1.48;;;0.82;;
27704;SDS011;15109;50.992;6.918;2022-11-21T20:22:14;4.22;;;1.13;;
27704;SDS011;15109;50.992;6.918;2022-11-21T20:25:41;1.30;;;0.77;;
27704;SDS011;15109;50.992;6.918;2022-11-21T20:29:12;2.78;;;0.65;;
27704;SDS011;15109;50.992;6.918;2022-11-21T20:32:33;3.58;;;0.98;;
27704;SDS011;15109;50.992;6.918;2022-11-21T20:36:01;1.02;;;0.68;;
27704;SDS011;15109;50.992;6.918;2022-11-21T20:39:25;5.13;;;0.80;;
27704;SDS011;15109;50.992;6.918;2022-11-21T20:42:51;1.38;;;0.73;;
27704;SDS011;15109;50.992;6.918;2022-11-21T20:46:15;1.27;;;0.88;;
27704;SDS011;15109;50.992;6.918;2022-11-21T20:49:39;1.92;;;0.65;;
27704;SDS011;15109;50.992;6.918;2022-11-21T20:53:02;1.25;;;0.75;;
27704;SDS011;15109;50.992;6.918;2022-11-21T20:56:34;1.25;;;0.75;;
27704;SDS011;15109;50.992;6.918;2022-11-21T20:59:59;4.03;;;0.98;;
27704;SDS011;15109;50.992;6.918;2022-11-21T21:03:22;4.07;;;1.30;;
27704;SDS011;15109;50.992;6.918;2022-11-21T21:06:44;0.98;;;0.60;;
27704;SDS011;15109;50.992;6.918;2022-11-21T21:10:07;2.70;;;1.15;;
27704;SDS011;15109;50.992;6.918;2022-11-21T21:13:32;5.07;;;1.13;;
27704;SDS011;15109;50.992;6.918;2022-11-21T21:16:59;2.22;;;0.63;;
27704;SDS011;15109;50.992;6.918;2022-11-21T21:20:25;0.27;;;0.27;;
27704;SDS011;15109;50.992;6.918;2022-11-21T21:23:52;7.55;;;1.08;;
27704;SDS011;15109;50.992;6.918;2022-11-21T21:27:19;2.92;;;1.13;;
27704;SDS011;15109;50.992;6.918;2022-11-21T21:30:43;3.10;;;1.20;;
27704;SDS011;15109;50.992;6.918;2022-11-21T21:34:07;6.15;;;0.70;;
27704;SDS011;15109;50.992;6.918;2022-11-21T21:37:36;2.13;;;0.90;;
27704;SDS011;15109;50.992;6.918;2022-11-21T21:41:10;1.25;;;0.55;;
27704;SDS011;15109;50.992;6.918;2022-11-21T21:44:39;3.15;;;0.73;;
27704;SDS011;15109;50.992;6.918;2022-11-21T21:48:05;2.50;;;0.52;;
27704;SDS011;15109;50.992;6.918;2022-11-21T21:51:31;2.38;;;0.75;;
27704;SDS011;15109;50.992;6.918;2022-11-21T21:54:54;2.67;;;0.70;;
27704;SDS011;15109;50.992;6.918;2022-11-21T21:58:20;3.22;;;0.93;;
27704;SDS011;15109;50.992;6.918;2022-11-21T22:01:46;4.90;;;1.15;;
27704;SDS011;15109;50.992;6.918;2022-11-21T22:05:11;2.78;;;0.98;;
27704;SDS011;15109;50.992;6.918;2022-11-21T22:08:43;2.15;;;0.88;;
27704;SDS011;15109;50.992;6.918;2022-11-21T22:12:08;2.30;;;0.80;;
27704;SDS011;15109;50.992;6.918;2022-11-21T22:15:29;2.65;;;1.08;;